createdAt,value
2022-08-28T00:00:25.822Z,11.00
2022-08-28T00:02:53.982Z,5.60
2022-08-28T00:05:22.514Z,5.20
2022-08-28T00:07:49.659Z,6.65
2022-08-28T00:10:19.398Z,5.45
2022-08-28T00:12:49.519Z,6.88
2022-08-28T00:15:20.555Z,7.30
2022-08-28T00:17:48.638Z,8.75
2022-08-28T00:20:18.552Z,6.90
2022-08-28T00:22:45.723Z,6.15
2022-08-28T00:25:14.312Z,5.82
2022-08-28T00:27:53.604Z,5.32
2022-08-28T00:30:49.251Z,5.53
2022-08-28T00:33:23.678Z,7.45
2022-08-28T00:35:51.523Z,6.20
2022-08-28T00:38:19.972Z,7.30
2022-08-28T00:40:50.330Z,8.20
2022-08-28T00:43:39.943Z,6.60
2022-08-28T00:46:13.698Z,7.03
2022-08-28T00:48:41.055Z,7.03
2022-08-28T00:51:27.222Z,7.97
2022-08-28T00:53:58.920Z,5.45
2022-08-28T00:56:27.696Z,3.88
2022-08-28T00:58:56.744Z,5.80
2022-08-28T01:01:24.372Z,6.45
2022-08-28T01:03:51.146Z,4.75
2022-08-28T01:06:20.546Z,3.97
2022-08-28T01:08:50.720Z,4.47
2022-08-28T01:11:19.606Z,9.82
2022-08-28T01:13:48.447Z,9.88
2022-08-28T01:16:17.308Z,7.20
2022-08-28T01:18:44.922Z,9.05
2022-08-28T01:21:26.899Z,6.75
2022-08-28T01:23:58.046Z,8.27
2022-08-28T01:26:28.153Z,7.07
2022-08-28T01:28:58.296Z,9.15
2022-08-28T01:31:27.134Z,10.75
2022-08-28T01:33:54.288Z,5.50
2022-08-28T01:36:21.423Z,6.00
2022-08-28T01:38:52.801Z,9.93
2022-08-28T01:41:19.642Z,7.35
2022-08-28T01:43:46.473Z,7.47
2022-08-28T01:46:13.223Z,11.60
2022-08-28T01:48:42.555Z,9.40
2022-08-28T01:51:12.088Z,8.02
2022-08-28T01:53:39.314Z,8.00
2022-08-28T01:56:10.403Z,9.63
2022-08-28T01:58:38.668Z,7.72
2022-08-28T02:01:13.793Z,14.20
2022-08-28T02:03:42.816Z,12.02
2022-08-28T02:06:10.280Z,8.45
2022-08-28T02:08:37.060Z,7.20
2022-08-28T02:11:06.295Z,7.72
2022-08-28T02:13:35.020Z,10.77
2022-08-28T02:16:01.909Z,6.90
2022-08-28T02:18:28.649Z,7.55
2022-08-28T02:20:55.363Z,7.82
2022-08-28T02:23:22.453Z,6.32
2022-08-28T02:25:49.887Z,7.03
2022-08-28T02:28:18.127Z,7.57
2022-08-28T02:30:44.804Z,9.65
2022-08-28T02:33:11.531Z,8.30
2022-08-28T02:35:40.190Z,12.32
2022-08-28T02:38:06.875Z,9.20
2022-08-28T02:40:33.644Z,7.72
2022-08-28T02:43:00.425Z,10.75
2022-08-28T02:45:27.094Z,11.65
2022-08-28T02:47:54.585Z,8.27
2022-08-28T02:50:22.148Z,8.18
2022-08-28T02:52:49.322Z,10.70
2022-08-28T02:55:18.529Z,8.20
2022-08-28T02:57:47.041Z,9.35
2022-08-28T03:00:19.743Z,8.77
2022-08-28T03:02:46.893Z,12.88
2022-08-28T03:05:15.825Z,10.98
2022-08-28T03:07:42.739Z,12.48
2022-08-28T03:10:10.046Z,11.70
2022-08-28T03:12:38.131Z,10.65
2022-08-28T03:15:07.610Z,13.52
2022-08-28T03:17:35.518Z,13.98
2022-08-28T03:20:03.454Z,9.57
2022-08-28T03:22:48.697Z,10.35
2022-08-28T03:25:15.412Z,10.13
2022-08-28T03:27:42.082Z,7.18
2022-08-28T03:30:09.137Z,12.35
2022-08-28T03:32:35.958Z,9.88
2022-08-28T03:35:03.920Z,11.18
2022-08-28T03:37:30.655Z,12.45
2022-08-28T03:39:57.381Z,12.35
2022-08-28T03:42:24.138Z,10.90
2022-08-28T03:44:51.443Z,7.63
2022-08-28T03:47:18.099Z,10.55
2022-08-28T03:49:47.386Z,8.93
2022-08-28T03:52:14.064Z,11.57
2022-08-28T03:54:40.773Z,10.90
2022-08-28T03:57:07.733Z,9.32
2022-08-28T03:59:35.772Z,12.20
2022-08-28T04:02:02.550Z,10.00
2022-08-28T04:04:29.240Z,8.35
2022-08-28T04:06:55.933Z,10.57
2022-08-28T04:09:22.641Z,10.27
2022-08-28T04:11:49.308Z,11.43
2022-08-28T04:14:15.987Z,15.40
2022-08-28T04:16:42.779Z,12.75
2022-08-28T04:19:09.716Z,10.68
2022-08-28T04:21:36.783Z,10.13
2022-08-28T04:24:05.829Z,9.88
2022-08-28T04:26:36.694Z,10.20
2022-08-28T04:29:04.967Z,10.13
2022-08-28T04:31:33.081Z,12.90
2022-08-28T04:34:01.702Z,10.25
2022-08-28T04:36:28.961Z,11.63
2022-08-28T04:38:57.827Z,7.93
2022-08-28T04:41:24.582Z,8.57
2022-08-28T04:43:53.033Z,8.65
2022-08-28T04:46:20.439Z,10.70
2022-08-28T04:48:47.216Z,9.40
2022-08-28T04:51:15.227Z,10.90
2022-08-28T04:53:42.979Z,13.40
2022-08-28T04:56:12.099Z,10.07
2022-08-28T04:58:40.847Z,14.10
2022-08-28T05:01:18.763Z,13.13
2022-08-28T05:03:47.842Z,9.48
2022-08-28T05:06:16.303Z,10.27
2022-08-28T05:08:43.247Z,6.63
2022-08-28T05:11:27.345Z,11.52
2022-08-28T05:14:04.132Z,10.38
2022-08-28T05:16:30.856Z,10.25
2022-08-28T05:19:01.162Z,9.27
2022-08-28T05:21:28.169Z,9.25
2022-08-28T05:23:57.393Z,8.15
2022-08-28T05:26:27.058Z,9.35
2022-08-28T05:28:56.267Z,9.30
2022-08-28T05:31:24.424Z,10.90
2022-08-28T05:33:52.630Z,9.52
2022-08-28T05:36:22.538Z,10.35
2022-08-28T05:38:50.647Z,9.13
2022-08-28T05:41:21.671Z,9.23
2022-08-28T05:43:49.390Z,9.65
2022-08-28T05:46:16.332Z,10.07
2022-08-28T05:48:45.188Z,11.52
2022-08-28T05:51:14.623Z,9.82
2022-08-28T05:53:43.514Z,10.35
2022-08-28T05:56:12.651Z,8.02
2022-08-28T05:58:40.402Z,6.32
2022-08-28T06:01:31.267Z,9.02
2022-08-28T06:04:05.472Z,15.77
2022-08-28T06:06:34.450Z,7.85
2022-08-28T06:09:11.255Z,9.63
2022-08-28T06:11:39.071Z,7.90
2022-08-28T06:14:13.451Z,11.70
2022-08-28T06:16:44.632Z,10.63
2022-08-28T06:19:13.083Z,8.13
2022-08-28T06:21:41.434Z,10.07
2022-08-28T06:24:09.971Z,9.55
2022-08-28T06:26:36.850Z,9.77
2022-08-28T06:29:09.329Z,9.98
2022-08-28T06:31:36.245Z,10.00
2022-08-28T06:34:03.372Z,11.30
2022-08-28T06:36:32.351Z,9.27
2022-08-28T06:39:00.083Z,8.65
2022-08-28T06:41:27.606Z,10.40
2022-08-28T06:43:55.461Z,9.65
2022-08-28T06:46:22.461Z,8.50
2022-08-28T06:48:49.270Z,11.38
2022-08-28T06:51:16.669Z,7.35
2022-08-28T06:53:44.843Z,13.35
2022-08-28T06:56:26.935Z,10.98
2022-08-28T06:58:56.584Z,8.35
2022-08-28T07:01:29.122Z,9.93
2022-08-28T07:03:59.573Z,11.38
2022-08-28T07:06:27.456Z,11.63
2022-08-28T07:08:54.161Z,8.40
2022-08-28T07:11:26.086Z,11.18
2022-08-28T07:13:53.525Z,8.73
2022-08-28T07:16:22.728Z,8.70
2022-08-28T07:18:49.671Z,10.07
2022-08-28T07:21:16.759Z,8.80
2022-08-28T07:23:44.618Z,9.15
2022-08-28T07:26:15.669Z,8.57
2022-08-28T07:28:42.448Z,9.10
2022-08-28T07:31:15.069Z,9.00
2022-08-28T07:33:42.586Z,11.55
2022-08-28T07:36:16.073Z,9.85
2022-08-28T07:38:56.339Z,8.73
2022-08-28T07:41:26.418Z,8.52
2022-08-28T07:44:12.025Z,9.95
2022-08-28T07:46:39.379Z,11.57
2022-08-28T07:49:07.586Z,6.05
2022-08-28T07:51:34.878Z,10.88
2022-08-28T07:54:03.806Z,16.30
2022-08-28T07:56:31.050Z,8.10
2022-08-28T07:58:59.783Z,8.40
2022-08-28T08:01:30.650Z,6.65
2022-08-28T08:04:01.254Z,7.93
2022-08-28T08:06:34.109Z,10.35
2022-08-28T08:09:02.218Z,7.70
2022-08-28T08:11:32.161Z,8.32
2022-08-28T08:14:04.660Z,8.55
2022-08-28T08:16:35.558Z,11.23
2022-08-28T08:19:02.348Z,8.25
2022-08-28T08:21:30.427Z,12.68
2022-08-28T08:23:57.996Z,9.63
2022-08-28T08:26:28.013Z,7.13
2022-08-28T08:28:55.931Z,9.15
2022-08-28T08:31:35.256Z,11.48
2022-08-28T08:34:04.333Z,8.18
2022-08-28T08:36:32.824Z,8.07
2022-08-28T08:39:00.615Z,10.10
2022-08-28T08:41:37.360Z,10.48
2022-08-28T08:44:04.013Z,8.05
2022-08-28T08:46:46.232Z,9.75
2022-08-28T08:49:18.168Z,6.07
2022-08-28T08:54:20.660Z,9.95
2022-08-28T08:56:49.021Z,7.70
2022-08-28T08:59:19.364Z,9.95
2022-08-28T09:01:53.198Z,8.23
2022-08-28T09:04:27.523Z,9.80
2022-08-28T09:07:03.941Z,6.78
2022-08-28T09:09:33.623Z,7.90
2022-08-28T09:12:20.165Z,10.57
2022-08-28T09:14:54.702Z,7.72
2022-08-28T09:17:27.785Z,6.88
2022-08-28T09:19:54.640Z,9.23
2022-08-28T09:22:22.408Z,9.98
2022-08-28T09:24:51.563Z,11.00
2022-08-28T09:27:28.717Z,7.88
2022-08-28T09:30:13.772Z,11.90
2022-08-28T09:32:44.466Z,6.97
2022-08-28T09:35:29.765Z,8.32
2022-08-28T09:38:16.114Z,9.63
2022-08-28T09:41:01.266Z,7.72
2022-08-28T09:43:30.070Z,10.07
2022-08-28T09:45:58.163Z,12.90
2022-08-28T09:48:35.909Z,7.95
2022-08-28T09:51:28.058Z,8.20
2022-08-28T09:53:54.735Z,10.90
2022-08-28T09:56:34.288Z,8.38
2022-08-28T09:59:22.700Z,7.38
2022-08-28T10:02:18.513Z,5.93
2022-08-28T10:05:12.766Z,7.00
2022-08-28T10:07:49.172Z,6.85
2022-08-28T10:10:18.842Z,10.23
2022-08-28T10:13:14.330Z,7.68
2022-08-28T10:15:44.023Z,8.23
2022-08-28T10:18:35.121Z,7.57
2022-08-28T10:21:12.811Z,7.85
2022-08-28T10:24:16.776Z,6.18
2022-08-28T10:27:27.142Z,8.48
2022-08-28T10:30:17.316Z,7.07
2022-08-28T10:33:08.196Z,6.57
2022-08-28T10:35:40.802Z,5.88
2022-08-28T10:38:13.184Z,7.07
2022-08-28T10:40:46.541Z,6.50
2022-08-28T10:43:34.350Z,7.55
2022-08-28T10:46:18.791Z,8.10
2022-08-28T10:48:52.091Z,5.22
2022-08-28T10:51:44.481Z,8.60
2022-08-28T10:54:42.993Z,8.18
2022-08-28T10:57:29.234Z,8.93
2022-08-28T10:59:55.932Z,4.95
2022-08-28T11:02:25.983Z,6.07
2022-08-28T11:04:58.509Z,8.40
2022-08-28T11:07:39.896Z,5.82
2022-08-28T11:10:29.700Z,6.90
2022-08-28T11:12:56.476Z,4.78
2022-08-28T11:15:23.324Z,8.18
2022-08-28T11:17:50.315Z,7.72
2022-08-28T11:20:25.021Z,5.70
2022-08-28T11:23:15.629Z,6.45
2022-08-28T11:25:50.372Z,7.00
2022-08-28T11:28:27.047Z,7.05
2022-08-28T11:31:06.107Z,7.45
2022-08-28T11:33:41.807Z,5.30
2022-08-28T11:36:21.855Z,6.45
2022-08-28T11:38:51.552Z,6.07
2022-08-28T11:41:24.246Z,8.45
2022-08-28T11:44:11.299Z,8.57
2022-08-28T11:46:39.236Z,7.65
2022-08-28T11:49:29.108Z,5.38
2022-08-28T11:52:05.096Z,5.95
2022-08-28T11:55:03.595Z,7.97
2022-08-28T11:57:51.889Z,8.07
2022-08-28T12:00:34.325Z,6.80
2022-08-28T12:03:06.896Z,4.97
2022-08-28T12:05:33.581Z,5.00
2022-08-28T12:08:02.844Z,5.88
2022-08-28T12:10:34.703Z,4.35
2022-08-28T12:13:04.362Z,6.85
2022-08-28T12:15:31.212Z,7.50
2022-08-28T12:18:14.706Z,5.97
2022-08-28T12:20:50.826Z,6.35
2022-08-28T12:23:23.386Z,5.22
2022-08-28T12:26:10.133Z,7.18
2022-08-28T12:28:44.985Z,5.88
2022-08-28T12:31:56.098Z,5.97
2022-08-28T12:34:31.562Z,6.45
2022-08-28T12:37:00.948Z,6.50
2022-08-28T12:39:30.431Z,7.60
2022-08-28T12:41:58.792Z,6.90
2022-08-28T12:44:29.028Z,8.52
2022-08-28T12:46:56.509Z,6.75
2022-08-28T12:49:35.907Z,11.23
2022-08-28T12:52:10.856Z,4.38
2022-08-28T12:54:45.532Z,5.03
2022-08-28T12:57:18.390Z,6.07
2022-08-28T12:59:53.838Z,6.85
2022-08-28T13:02:31.013Z,7.45
2022-08-28T13:05:01.634Z,7.70
2022-08-28T13:07:37.480Z,4.00
2022-08-28T13:10:27.070Z,5.95
2022-08-28T13:13:15.284Z,7.65
2022-08-28T13:15:49.190Z,5.40
2022-08-28T13:18:34.792Z,7.60
2022-08-28T13:21:33.213Z,5.50
2022-08-28T13:24:21.762Z,7.00
2022-08-28T13:26:58.182Z,4.80
2022-08-28T13:29:25.075Z,6.03
2022-08-28T13:32:00.929Z,6.07
2022-08-28T13:34:33.436Z,6.05
2022-08-28T13:37:04.236Z,5.15
2022-08-28T13:39:37.104Z,7.50
2022-08-28T13:42:10.927Z,6.07
2022-08-28T13:44:50.512Z,5.00
2022-08-28T13:47:17.294Z,6.88
2022-08-28T13:49:44.017Z,4.95
2022-08-28T13:52:11.393Z,7.38
2022-08-28T13:54:39.176Z,6.13
2022-08-28T13:57:10.359Z,6.32
2022-08-28T13:59:37.075Z,6.70
2022-08-28T14:02:26.504Z,4.90
2022-08-28T14:04:53.631Z,5.85
2022-08-28T14:07:20.408Z,6.38
2022-08-28T14:09:47.265Z,4.45
2022-08-28T14:12:14.375Z,6.43
2022-08-28T14:14:41.277Z,7.53
2022-08-28T14:17:09.677Z,6.03
2022-08-28T14:19:37.079Z,8.50
2022-08-28T14:22:04.362Z,5.55
2022-08-28T14:24:31.103Z,6.78
2022-08-28T14:26:57.939Z,5.95
2022-08-28T14:29:24.779Z,3.90
2022-08-28T14:31:51.677Z,6.18
2022-08-28T14:34:22.557Z,8.35
2022-08-28T14:36:55.189Z,6.03
2022-08-28T14:39:25.193Z,6.50
2022-08-28T14:41:53.244Z,7.68
2022-08-28T14:44:21.567Z,6.25
2022-08-28T14:46:49.527Z,3.83
2022-08-28T14:49:17.583Z,5.50
2022-08-28T14:51:46.084Z,5.57
2022-08-28T14:54:15.833Z,5.65
2022-08-28T14:56:44.202Z,5.90
2022-08-28T14:59:18.481Z,7.85
2022-08-28T15:01:48.772Z,6.75
2022-08-28T15:04:19.886Z,4.40
2022-08-28T15:06:46.643Z,5.97
2022-08-28T15:09:14.607Z,9.63
2022-08-28T15:11:42.258Z,6.60
2022-08-28T15:14:09.027Z,6.18
2022-08-28T15:16:39.596Z,4.47
2022-08-28T15:19:11.554Z,6.32
2022-08-28T15:21:42.829Z,5.72
2022-08-28T15:24:10.058Z,5.97
2022-08-28T15:26:37.705Z,6.68
2022-08-28T15:29:05.834Z,6.30
2022-08-28T15:31:37.868Z,5.82
2022-08-28T15:34:13.195Z,5.97
2022-08-28T15:36:41.684Z,6.28
2022-08-28T15:39:27.535Z,6.43
2022-08-28T15:41:54.618Z,6.13
2022-08-28T15:44:21.499Z,7.28
2022-08-28T15:46:55.201Z,4.97
2022-08-28T15:49:23.884Z,8.48
2022-08-28T15:51:51.576Z,3.33
2022-08-28T15:54:18.966Z,5.88
2022-08-28T15:56:46.216Z,5.60
2022-08-28T15:59:17.668Z,7.10
2022-08-28T16:01:45.014Z,3.80
2022-08-28T16:04:13.573Z,5.35
2022-08-28T16:06:40.358Z,6.95
2022-08-28T16:09:08.791Z,6.40
2022-08-28T16:11:35.572Z,6.32
2022-08-28T16:14:05.560Z,5.97
2022-08-28T16:16:32.464Z,6.05
2022-08-28T16:18:59.240Z,5.47
2022-08-28T16:21:28.082Z,4.95
2022-08-28T16:23:54.986Z,4.30
2022-08-28T16:26:22.057Z,5.72
2022-08-28T16:28:49.095Z,5.50
2022-08-28T16:31:18.931Z,4.20
2022-08-28T16:33:46.412Z,5.45
2022-08-28T16:36:14.873Z,4.68
2022-08-28T16:38:45.606Z,5.57
2022-08-28T16:41:20.185Z,6.68
2022-08-28T16:43:47.823Z,6.57
2022-08-28T16:46:18.089Z,8.20
2022-08-28T16:48:45.507Z,4.95
2022-08-28T16:51:13.857Z,7.32
2022-08-28T16:53:42.449Z,6.03
2022-08-28T16:56:14.756Z,7.82
2022-08-28T16:58:42.663Z,5.35
2022-08-28T17:01:10.941Z,8.43
2022-08-28T17:03:39.833Z,5.70
2022-08-28T17:06:15.761Z,4.28
2022-08-28T17:08:42.908Z,7.70
2022-08-28T17:11:10.358Z,6.15
2022-08-28T17:13:37.640Z,5.55
2022-08-28T17:16:05.796Z,5.57
2022-08-28T17:18:33.181Z,7.68
2022-08-28T17:21:18.619Z,4.90
2022-08-28T17:23:46.488Z,4.05
2022-08-28T17:26:15.273Z,4.75
2022-08-28T17:28:42.911Z,3.97
2022-08-28T17:31:10.799Z,3.63
2022-08-28T17:33:39.464Z,5.57
2022-08-28T17:36:07.878Z,3.88
2022-08-28T17:38:48.607Z,5.18
2022-08-28T17:41:15.323Z,3.80
2022-08-28T17:43:41.993Z,4.30
2022-08-28T17:46:08.855Z,5.45
2022-08-28T17:48:36.814Z,5.88
2022-08-28T17:51:04.751Z,6.07
2022-08-28T17:53:31.738Z,3.88
2022-08-28T17:55:58.968Z,5.22
2022-08-28T17:58:25.640Z,6.03
2022-08-28T18:00:52.460Z,3.00
2022-08-28T18:03:19.141Z,4.47
2022-08-28T18:05:46.176Z,4.05
2022-08-28T18:08:13.063Z,5.53
2022-08-28T18:10:40.200Z,4.88
2022-08-28T18:13:06.926Z,7.97
2022-08-28T18:15:34.065Z,5.90
2022-08-28T18:18:03.705Z,6.68
2022-08-28T18:20:30.391Z,4.20
2022-08-28T18:22:57.133Z,2.75
2022-08-28T18:25:42.217Z,4.40
2022-08-28T18:28:19.629Z,6.25
2022-08-28T18:30:50.487Z,5.68
2022-08-28T18:33:21.742Z,6.72
2022-08-28T18:35:49.696Z,4.43
2022-08-28T18:38:18.038Z,4.22
2022-08-28T18:40:45.783Z,5.85
2022-08-28T18:43:13.227Z,5.95
2022-08-28T18:45:40.449Z,5.47
2022-08-28T18:48:09.947Z,6.53
2022-08-28T18:50:36.963Z,5.20
2022-08-28T18:53:04.508Z,5.95
2022-08-28T18:55:32.871Z,5.05
2022-08-28T18:58:01.113Z,5.72
2022-08-28T19:00:28.854Z,5.00
2022-08-28T19:02:55.832Z,5.60
2022-08-28T19:05:22.991Z,7.35
2022-08-28T19:07:50.060Z,6.40
2022-08-28T19:10:32.869Z,4.20
2022-08-28T19:13:01.773Z,4.85
2022-08-28T19:15:29.026Z,5.85
2022-08-28T19:17:55.914Z,2.92
2022-08-28T19:20:22.887Z,4.72
2022-08-28T19:22:49.858Z,3.58
2022-08-28T19:25:31.065Z,5.50
2022-08-28T19:27:59.824Z,6.32
2022-08-28T19:30:31.107Z,4.47
2022-08-28T19:32:57.793Z,5.05
2022-08-28T19:35:24.877Z,4.72
2022-08-28T19:37:54.791Z,6.88
2022-08-28T19:40:22.223Z,3.42
2022-08-28T19:42:52.304Z,6.53
2022-08-28T19:45:19.717Z,7.22
2022-08-28T19:47:46.985Z,6.07
2022-08-28T19:50:14.418Z,5.43
2022-08-28T19:52:43.165Z,5.53
2022-08-28T19:55:14.536Z,6.38
2022-08-28T19:57:41.228Z,5.97
2022-08-28T20:00:09.705Z,8.13
2022-08-28T20:02:37.713Z,4.93
2022-08-28T20:05:05.446Z,4.53
2022-08-28T20:07:32.133Z,4.70
2022-08-28T20:09:58.895Z,3.88
2022-08-28T20:12:26.216Z,5.57
2022-08-28T20:14:52.867Z,5.28
2022-08-28T20:17:19.668Z,5.75
2022-08-28T20:19:47.606Z,4.18
2022-08-28T20:22:15.206Z,6.55
2022-08-28T20:24:42.079Z,4.88
2022-08-28T20:27:08.915Z,5.43
2022-08-28T20:29:35.969Z,4.03
2022-08-28T20:32:03.359Z,3.35
2022-08-28T20:34:30.094Z,5.05
2022-08-28T20:36:56.807Z,5.63
2022-08-28T20:39:23.486Z,5.63
2022-08-28T20:41:50.863Z,4.68
2022-08-28T20:44:19.885Z,5.60
2022-08-28T20:46:51.169Z,6.47
2022-08-28T20:49:21.879Z,5.80
2022-08-28T20:51:56.751Z,5.90
2022-08-28T20:54:32.769Z,3.38
2022-08-28T20:57:03.514Z,6.20
2022-08-28T20:59:35.534Z,4.40
2022-08-28T21:02:17.960Z,4.40
2022-08-28T21:04:45.964Z,4.60
2022-08-28T21:07:14.533Z,5.40
2022-08-28T21:10:05.002Z,5.43
2022-08-28T21:12:31.611Z,4.90
2022-08-28T21:14:58.829Z,3.15
2022-08-28T21:17:29.522Z,6.30
2022-08-28T21:19:59.991Z,5.00
2022-08-28T21:22:26.699Z,4.25
2022-08-28T21:24:53.372Z,5.95
2022-08-28T21:27:20.005Z,3.58
2022-08-28T21:29:47.821Z,3.38
2022-08-28T21:32:14.963Z,4.05
2022-08-28T21:34:41.673Z,7.47
2022-08-28T21:37:08.366Z,4.85
2022-08-28T21:39:35.111Z,5.93
2022-08-28T21:42:01.799Z,4.72
2022-08-28T21:44:29.042Z,5.90
2022-08-28T21:46:55.788Z,4.43
2022-08-28T21:49:22.995Z,5.97
2022-08-28T21:51:50.463Z,3.95
2022-08-28T21:54:18.141Z,4.00
2022-08-28T21:56:45.488Z,4.93
2022-08-28T21:59:12.358Z,4.30
2022-08-28T22:01:39.105Z,4.65
2022-08-28T22:04:05.811Z,6.25
2022-08-28T22:06:32.508Z,4.22
2022-08-28T22:08:59.593Z,5.20
2022-08-28T22:11:26.902Z,5.30
2022-08-28T22:13:55.191Z,4.22
2022-08-28T22:16:23.237Z,4.32
2022-08-28T22:18:50.678Z,5.85
2022-08-28T22:21:39.624Z,4.88
2022-08-28T22:24:07.360Z,4.55
2022-08-28T22:26:34.217Z,6.50
2022-08-28T22:29:01.291Z,4.63
2022-08-28T22:31:28.109Z,5.55
2022-08-28T22:33:54.747Z,9.45
2022-08-28T22:36:22.189Z,6.15
2022-08-28T22:38:53.055Z,5.72
2022-08-28T22:41:20.803Z,7.35
2022-08-28T22:43:49.768Z,8.23
2022-08-28T22:46:18.725Z,6.18
2022-08-28T22:48:45.983Z,4.80
2022-08-28T22:51:15.083Z,4.85
2022-08-28T22:53:43.637Z,5.00
2022-08-28T22:56:11.653Z,6.70
2022-08-28T22:58:39.251Z,6.20
2022-08-28T23:01:12.856Z,5.20
2022-08-28T23:03:40.614Z,5.03
2022-08-28T23:06:07.759Z,5.70
2022-08-28T23:08:34.597Z,7.47
2022-08-28T23:11:01.738Z,4.13
2022-08-28T23:13:29.641Z,5.32
2022-08-28T23:15:56.953Z,5.30
2022-08-28T23:18:23.754Z,5.65
2022-08-28T23:20:51.510Z,4.70
2022-08-28T23:23:18.965Z,6.15
2022-08-28T23:25:45.684Z,5.90
2022-08-28T23:28:12.908Z,8.15
2022-08-28T23:30:41.231Z,5.25
2022-08-28T23:33:19.725Z,8.00
2022-08-28T23:35:50.236Z,5.53
2022-08-28T23:38:16.982Z,6.95
2022-08-28T23:40:44.231Z,6.03
2022-08-28T23:43:11.154Z,6.95
2022-08-28T23:45:40.345Z,8.80
2022-08-28T23:48:08.143Z,7.47
2022-08-28T23:50:34.961Z,6.38
2022-08-28T23:53:02.412Z,6.07
2022-08-28T23:55:29.316Z,6.25
2022-08-28T23:57:56.455Z,6.32
